Old Moulton, Texas
Current Conditions -  °F | °C
As of 10:15 AM on Friday 19 Dec 2014 (Local Time) from KT20 Reporting Station
Overcast Overcast  
Wind Chill: 55°   Ceiling: 3400
Heat Index: 55°   Visibility: 10mi
Dew Point: 52°   Wind: 13mph
Humidity: 91%   Direction: 40°NE
Pressure: 30.1"   Gusts: 20mph
Location:  29.5667°N, 97.0723°W
Report Text: KT20 191615Z AUTO 04011G17KT 10SM SCT010 SCT014 OVC034 13/11 A3010 RMK AO2 T01250110
Loading
Personal Weather Stations






























Interactive Weather Map New forecast layout! Learn more

10-Day Weather Forecast

Advertisements
Track Severe Weather on mobile